Station Historical Data
Daily Summary for December 6, 2017 Units:  Both    English   Metric
« Previous Day
Next Day »
Daily Weekly Monthly Yearly Custom
  High: Low: Average:
Temperature: 54.1 °F /  12.3 °C 36.8 °F /  2.7 °C 40.2 °F /  4.6 °C
Dew Point: 52.1 °F /  11.2 °C 26.9 °F /  -2.8 °C 32.4 °F /  0.2 °C
Humidity: 93% 58% 74%
Wind Speed: 5.8mph /  9.3km/h - 2mph /  3.2km/h
Wind Gust: 5.8mph /  9.3km/h - -
Wind- - SW
Pressure: 30.25 in /  1024.3 hPa 30.11 in /  1019.5 hPa -
Precipitation: 0.03 in /  0.76 mm    
Historical Graphs
 
 
Tabular Data for December 6, 2017
Time Temperature Dew Point Pressure Wind Wind Speed Wind Gust Humidity Rainfall Rate (Hourly) solar Conditions
00:01 54.0 °F /  12.2 °C 52.0 °F /  11.1 °C 30.11in /  1019.5hPa SW 2.3mph /  3.7km/h   93% 0.01in /  0.25mm WeatherDisplay:10.37 W/m2 -DZ
00:06 54.0 °F /  12.2 °C 52.0 °F /  11.1 °C 30.12in /  1019.9hPa SW 2.3mph /  3.7km/h   93% 0.01in /  0.25mm WeatherDisplay:10.37 W/m2 -DZ
00:10 54.1 °F /  12.3 °C 52.1 °F /  11.2 °C 30.12in /  1019.9hPa WSW 1.2mph /  1.9km/h 1.2mph /  1.9km/h 93% 0.01in /  0.25mm WeatherDisplay:10.37 W/m2 -DZ
00:16 53.6 °F /  12 °C 51.6 °F /  10.9 °C 30.12in /  1019.9hPa North 3.5mph /  5.6km/h 3.5mph /  5.6km/h 93% 0.01in /  0.25mm WeatherDisplay:10.37 W/m2 -DZ
00:21 52.5 °F /  11.4 °C 49.9 °F /  9.9 °C 30.12in /  1019.9hPa ENE 5.8mph /  9.3km/h 5.8mph /  9.3km/h 91% 0.01in /  0.25mm WeatherDisplay:10.37 W/m2 -DZ
00:26 51.1 °F /  10.6 °C 48.3 °F /  9.1 °C 30.13in /  1020.2hPa East 5.8mph /  9.3km/h 5.8mph /  9.3km/h 90% 0.02in /  0.51mm WeatherDisplay:10.37 W/m2 -RA
00:31 50.3 °F /  10.2 °C 47.5 °F /  8.6 °C 30.13in /  1020.2hPa South 5.8mph /  9.3km/h 5.8mph /  9.3km/h 90% 0.02in /  0.51mm WeatherDisplay:10.37 W/m2 -RA
00:36 49.7 °F /  9.8 °C 46.9 °F /  8.3 °C 30.13in /  1020.2hPa East 5.8mph /  9.3km/h   90% 0.02in /  0.51mm WeatherDisplay:10.37 W/m2 -RA
00:41 49.3 °F /  9.6 °C 46.8 °F /  8.2 °C 30.12in /  1019.9hPa South 5.8mph /  9.3km/h   91% 0.02in /  0.51mm WeatherDisplay:10.37 W/m2 -RA
00:46 48.9 °F /  9.4 °C 46.4 °F /  8 °C 30.12in /  1019.9hPa WSW 1.2mph /  1.9km/h 1.2mph /  1.9km/h 91% 0.02in /  0.51mm WeatherDisplay:10.37 W/m2 -RA
00:51 48.3 °F /  9.1 °C 45.5 °F /  7.5 °C 30.12in /  1019.9hPa ESE 4.6mph /  7.4km/h 4.6mph /  7.4km/h 90% 0.01in /  0.25mm WeatherDisplay:10.37 W/m2 -RA
00:56 47.8 °F /  8.8 °C 45.0 °F /  7.2 °C 30.12in /  1019.9hPa SW 4.6mph /  7.4km/h   90% 0.01in /  0.25mm WeatherDisplay:10.37 W/m2 -RA
01:01 47.2 °F /  8.4 °C 44.1 °F /  6.7 °C 30.12in /  1019.9hPa WNW 4.6mph /  7.4km/h 4.6mph /  7.4km/h 89% 0.01in /  0.25mm WeatherDisplay:10.37 W/m2 OVC
01:06 46.7 °F /  8.2 °C 43.6 °F /  6.4 °C 30.13in /  1020.2hPa WNW 3.5mph /  5.6km/h 3.5mph /  5.6km/h 89% 0.01in /  0.25mm WeatherDisplay:10.37 W/m2 OVC
01:12 46.3 °F /  7.9 °C 42.9 °F /  6.1 °C 30.13in /  1020.2hPa SSW 3.5mph /  5.6km/h   88% 0.01in /  0.25mm WeatherDisplay:10.37 W/m2 OVC
01:17 46.1 °F /  7.8 °C 43.0 °F /  6.1 °C 30.13in /  1020.2hPa SE 3.5mph /  5.6km/h   89% 0.01in /  0.25mm WeatherDisplay:10.37 W/m2 OVC
01:22 45.9 °F /  7.7 °C 42.8 °F /  6 °C 30.13in /  1020.2hPa East 2.3mph /  3.7km/h 2.3mph /  3.7km/h 89% 0.01in /  0.25mm WeatherDisplay:10.37 W/m2 OVC
01:27 45.6 °F /  7.6 °C 42.5 °F /  5.8 °C 30.12in /  1019.9hPa SE 2.3mph /  3.7km/h   89% 0.00in /  0mm WeatherDisplay:10.37 W/m2 OVC
01:32 45.4 °F /  7.4 °C 42.1 °F /  5.6 °C 30.12in /  1019.9hPa ESE 2.3mph /  3.7km/h   88% 0.00in /  0mm WeatherDisplay:10.37 W/m2 OVC
01:37 45.3 °F /  7.4 °C 42.2 °F /  5.7 °C 30.12in /  1019.9hPa East 1.2mph /  1.9km/h   89% 0.00in /  0mm WeatherDisplay:10.37 W/m2 OVC
01:42 44.9 °F /  7.2 °C 41.6 °F /  5.3 °C 30.13in /  1020.2hPa NNE 1.2mph /  1.9km/h 1.2mph /  1.9km/h 88% 0.00in /  0mm WeatherDisplay:10.37 W/m2 OVC
01:47 44.5 °F /  6.9 °C 40.9 °F /  4.9 °C 30.13in /  1020.2hPa WNW 2.3mph /  3.7km/h   87% 0.00in /  0mm WeatherDisplay:10.37 W/m2 OVC
01:52 44.2 °F /  6.8 °C 40.9 °F /  4.9 °C 30.14in /  1020.5hPa WNW 2.3mph /  3.7km/h   88% 0.00in /  0mm WeatherDisplay:10.37 W/m2 OVC
01:57 43.9 °F /  6.6 °C 40.6 °F /  4.8 °C 30.14in /  1020.5hPa WNW 1.2mph /  1.9km/h   88% 0.00in /  0mm WeatherDisplay:10.37 W/m2 OVC
02:02 43.6 °F /  6.4 °C 40.3 °F /  4.6 °C 30.14in /  1020.5hPa Calm     88% 0.00in /  0mm WeatherDisplay:10.37 W/m2 BKN
02:07 43.5 °F /  6.4 °C 40.5 °F /  4.7 °C 30.13in /  1020.2hPa WNW 1.2mph /  1.9km/h   89% 0.00in /  0mm WeatherDisplay:10.37 W/m2 BKN
02:13 43.4 °F /  6.3 °C 40.4 °F /  4.7 °C 30.14in /  1020.5hPa WNW 1.2mph /  1.9km/h 1.2mph /  1.9km/h 89% 0.00in /  0mm WeatherDisplay:10.37 W/m2 BKN
02:18 43.2 °F /  6.2 °C 39.9 °F /  4.4 °C 30.14in /  1020.5hPa NNW 1.2mph /  1.9km/h   88% 0.00in /  0mm WeatherDisplay:10.37 W/m2 BKN
02:23 43.1 °F /  6.2 °C 39.5 °F /  4.2 °C 30.14in /  1020.5hPa NW 2.3mph /  3.7km/h 2.3mph /  3.7km/h 87% 0.00in /  0mm WeatherDisplay:10.37 W/m2 BKN
02:28 43.1 °F /  6.2 °C 39.2 °F /  4 °C 30.14in /  1020.5hPa North 2.3mph /  3.7km/h 2.3mph /  3.7km/h 86% 0.00in /  0mm WeatherDisplay:10.37 W/m2 BKN
02:33 42.9 °F /  6.1 °C 39.0 °F /  3.9 °C 30.14in /  1020.5hPa SW 2.3mph /  3.7km/h 2.3mph /  3.7km/h 86% 0.00in /  0mm WeatherDisplay:10.37 W/m2 BKN
02:35 42.9 °F /  6.1 °C 39.0 °F /  3.9 °C 30.14in /  1020.5hPa WSW 2.3mph /  3.7km/h   86% 0.00in /  0mm WeatherDisplay:10.37 W/m2 BKN
02:40 42.9 °F /  6.1 °C 39.0 °F /  3.9 °C 30.14in /  1020.5hPa SW 3.5mph /  5.6km/h   86% 0.00in /  0mm WeatherDisplay:10.37 W/m2 BKN
02:45 42.8 °F /  6 °C 39.2 °F /  4 °C 30.15in /  1020.9hPa WNW 3.5mph /  5.6km/h   87% 0.00in /  0mm WeatherDisplay:10.37 W/m2 BKN
02:50 42.7 °F /  5.9 °C 39.1 °F /  3.9 °C 30.15in /  1020.9hPa NW 2.3mph /  3.7km/h   87% 0.00in /  0mm WeatherDisplay:10.37 W/m2 BKN
02:55 42.7 °F /  5.9 °C 38.8 °F /  3.8 °C 30.15in /  1020.9hPa West 3.5mph /  5.6km/h   86% 0.00in /  0mm WeatherDisplay:10.37 W/m2 BKN
03:00 42.6 °F /  5.9 °C 38.7 °F /  3.7 °C 30.15in /  1020.9hPa West 3.5mph /  5.6km/h 3.5mph /  5.6km/h 86% 0.00in /  0mm WeatherDisplay:10.37 W/m2 BKN
03:05 42.5 °F /  5.8 °C 38.3 °F /  3.5 °C 30.14in /  1020.5hPa West 2.3mph /  3.7km/h 2.3mph /  3.7km/h 85% 0.00in /  0mm WeatherDisplay:10.37 W/m2 BKN
03:10 42.4 °F /  5.8 °C 37.9 °F /  3.3 °C 30.15in /  1020.9hPa SSW 1.2mph /  1.9km/h 1.2mph /  1.9km/h 84% 0.00in /  0mm WeatherDisplay:10.37 W/m2 BKN
03:16 42.3 °F /  5.7 °C 37.8 °F /  3.2 °C 30.15in /  1020.9hPa WSW 1.2mph /  1.9km/h 1.2mph /  1.9km/h 84% 0.00in /  0mm WeatherDisplay:10.37 W/m2 BKN
03:21 42.1 °F /  5.6 °C 37.9 °F /  3.3 °C 30.15in /  1020.9hPa West 2.3mph /  3.7km/h   85% 0.00in /  0mm WeatherDisplay:10.37 W/m2 BKN
03:26 42.0 °F /  5.6 °C 36.9 °F /  2.7 °C 30.14in /  1020.5hPa WNW 5.8mph /  9.3km/h 5.8mph /  9.3km/h 82% 0.00in /  0mm WeatherDisplay:10.37 W/m2 BKN
03:31 41.8 °F /  5.4 °C 36.7 °F /  2.6 °C 30.15in /  1020.9hPa SE 5.8mph /  9.3km/h 5.8mph /  9.3km/h 82% 0.00in /  0mm WeatherDisplay:10.37 W/m2 BKN
03:36 41.6 °F /  5.3 °C 36.5 °F /  2.5 °C 30.15in /  1020.9hPa South 5.8mph /  9.3km/h 5.8mph /  9.3km/h 82% 0.00in /  0mm WeatherDisplay:10.37 W/m2 BKN
03:41 41.4 °F /  5.2 °C 36.6 °F /  2.6 °C 30.15in /  1020.9hPa ESE 2.3mph /  3.7km/h   83% 0.00in /  0mm WeatherDisplay:10.37 W/m2 BKN
03:46 41.2 °F /  5.1 °C 36.4 °F /  2.4 °C 30.15in /  1020.9hPa South 2.3mph /  3.7km/h   83% 0.00in /  0mm WeatherDisplay:10.37 W/m2 BKN
03:51 41.1 °F /  5.1 °C 35.7 °F /  2.1 °C 30.15in /  1020.9hPa ESE 4.6mph /  7.4km/h 4.6mph /  7.4km/h 81% 0.00in /  0mm WeatherDisplay:10.37 W/m2 BKN
03:56 40.9 °F /  4.9 °C 35.8 °F /  2.1 °C 30.16in /  1021.2hPa SE 4.6mph /  7.4km/h   82% 0.00in /  0mm WeatherDisplay:10.37 W/m2 BKN
04:01 40.7 °F /  4.8 °C 35.6 °F /  2 °C 30.15in /  1020.9hPa SW 3.5mph /  5.6km/h   82% 0.00in /  0mm WeatherDisplay:10.37 W/m2 SCT
04:06 40.6 °F /  4.8 °C 34.9 °F /  1.6 °C 30.15in /  1020.9hPa East 3.5mph /  5.6km/h 3.5mph /  5.6km/h 80% 0.00in /  0mm WeatherDisplay:10.37 W/m2 SCT
04:12 40.5 °F /  4.7 °C 35.4 °F /  1.9 °C 30.15in /  1020.9hPa NE 3.5mph /  5.6km/h   82% 0.00in /  0mm WeatherDisplay:10.37 W/m2 SCT
04:17 40.2 °F /  4.6 °C 35.1 °F /  1.7 °C 30.15in /  1020.9hPa NNW 2.3mph /  3.7km/h   82% 0.00in /  0mm WeatherDisplay:10.37 W/m2 SCT
04:22 40.1 °F /  4.5 °C 35.0 °F /  1.7 °C 30.15in /  1020.9hPa SE 2.3mph /  3.7km/h   82% 0.00in /  0mm WeatherDisplay:10.37 W/m2 SCT
04:27 39.9 °F /  4.4 °C 34.9 °F /  1.6 °C 30.14in /  1020.5hPa South 2.3mph /  3.7km/h   82% 0.00in /  0mm WeatherDisplay:10.37 W/m2 SCT
04:32 39.8 °F /  4.3 °C 34.8 °F /  1.6 °C 30.14in /  1020.5hPa WSW 1.2mph /  1.9km/h   82% 0.00in /  0mm WeatherDisplay:10.37 W/m2 SCT
04:37 39.7 °F /  4.3 °C 35.3 °F /  1.8 °C 30.14in /  1020.5hPa West 1.2mph /  1.9km/h   84% 0.00in /  0mm WeatherDisplay:10.37 W/m2 SCT
04:42 39.6 °F /  4.2 °C 34.9 °F /  1.6 °C 30.15in /  1020.9hPa SSW 2.3mph /  3.7km/h   83% 0.00in /  0mm WeatherDisplay:10.37 W/m2 SCT
04:47 39.5 °F /  4.2 °C 34.2 °F /  1.2 °C 30.15in /  1020.9hPa SE 2.3mph /  3.7km/h 2.3mph /  3.7km/h 81% 0.00in /  0mm WeatherDisplay:10.37 W/m2 SCT
04:52 39.4 °F /  4.1 °C 34.4 °F /  1.3 °C 30.15in /  1020.9hPa SSE 3.5mph /  5.6km/h 3.5mph /  5.6km/h 82% 0.00in /  0mm WeatherDisplay:10.37 W/m2 SCT
04:57 39.2 °F /  4 °C 34.2 °F /  1.2 °C 30.15in /  1020.9hPa SW 3.5mph /  5.6km/h   82% 0.00in /  0mm WeatherDisplay:10.37 W/m2 SCT
05:02 39.1 °F /  3.9 °C 34.1 °F /  1.2 °C 30.15in /  1020.9hPa WSW 3.5mph /  5.6km/h 3.5mph /  5.6km/h 82% 0.00in /  0mm WeatherDisplay:10.37 W/m2 BKN
05:07 38.9 °F /  3.8 °C 33.9 °F /  1.1 °C 30.14in /  1020.5hPa West 1.2mph /  1.9km/h   82% 0.00in /  0mm WeatherDisplay:10.37 W/m2 BKN
05:12 38.9 °F /  3.8 °C 33.9 °F /  1.1 °C 30.14in /  1020.5hPa NNW 1.2mph /  1.9km/h   82% 0.00in /  0mm WeatherDisplay:10.37 W/m2 BKN
05:17 38.8 °F /  3.8 °C 33.8 °F /  1 °C 30.15in /  1020.9hPa North 1.2mph /  1.9km/h   82% 0.00in /  0mm WeatherDisplay:10.37 W/m2 BKN
05:23 38.7 °F /  3.7 °C 33.7 °F /  0.9 °C 30.14in /  1020.5hPa NNW 1.2mph /  1.9km/h 1.2mph /  1.9km/h 82% 0.00in /  0mm WeatherDisplay:10.37 W/m2 BKN
05:28 38.6 °F /  3.7 °C 33.6 °F /  0.9 °C 30.14in /  1020.5hPa NW 1.2mph /  1.9km/h   82% 0.00in /  0mm WeatherDisplay:10.37 W/m2 BKN
05:33 38.5 °F /  3.6 °C 33.5 °F /  0.8 °C 30.14in /  1020.5hPa WNW 1.2mph /  1.9km/h   82% 0.00in /  0mm WeatherDisplay:10.37 W/m2 BKN
05:38 38.4 °F /  3.6 °C 33.1 °F /  0.6 °C 30.14in /  1020.5hPa WNW 1.2mph /  1.9km/h   81% 0.00in /  0mm WeatherDisplay:10.37 W/m2 BKN
05:43 38.4 °F /  3.6 °C 33.1 °F /  0.6 °C 30.15in /  1020.9hPa WNW 1.2mph /  1.9km/h   81% 0.00in /  0mm WeatherDisplay:10.37 W/m2 BKN
05:48 38.3 °F /  3.5 °C 33.0 °F /  0.6 °C 30.15in /  1020.9hPa WNW 1.2mph /  1.9km/h 1.2mph /  1.9km/h 81% 0.00in /  0mm WeatherDisplay:10.37 W/m2 BKN
05:53 38.3 °F /  3.5 °C 32.7 °F /  0.4 °C 30.15in /  1020.9hPa WNW 3.5mph /  5.6km/h   80% 0.00in /  0mm WeatherDisplay:10.37 W/m2 BKN
05:58 38.2 °F /  3.4 °C 32.6 °F /  0.3 °C 30.16in /  1021.2hPa SSW 3.5mph /  5.6km/h 3.5mph /  5.6km/h 80% 0.00in /  0mm WeatherDisplay:10.37 W/m2 BKN
06:03 38.2 °F /  3.4 °C 32.6 °F /  0.3 °C 30.16in /  1021.2hPa NW 1.2mph /  1.9km/h   80% 0.00in /  0mm WeatherDisplay:10.37 W/m2 OVC
06:08 38.1 °F /  3.4 °C 32.5 °F /  0.3 °C 30.16in /  1021.2hPa NW 1.2mph /  1.9km/h   80% 0.00in /  0mm WeatherDisplay:10.37 W/m2 OVC
06:13 38.1 °F /  3.4 °C 32.2 °F /  0.1 °C 30.15in /  1020.9hPa NNW 1.2mph /  1.9km/h   79% 0.00in /  0mm WeatherDisplay:10.37 W/m2 OVC
06:18 38.0 °F /  3.3 °C 32.1 °F /  0.1 °C 30.15in /  1020.9hPa North 1.2mph /  1.9km/h   79% 0.00in /  0mm WeatherDisplay:10.37 W/m2 OVC
06:23 37.9 °F /  3.3 °C 32.3 °F /  0.2 °C 30.15in /  1020.9hPa NW 1.2mph /  1.9km/h 1.2mph /  1.9km/h 80% 0.00in /  0mm WeatherDisplay:10.37 W/m2 OVC
06:28 37.9 °F /  3.3 °C 32.0 °F /  0 °C 30.15in /  1020.9hPa NW 1.2mph /  1.9km/h 1.2mph /  1.9km/h 79% 0.00in /  0mm WeatherDisplay:10.37 W/m2 OVC
06:34 37.9 °F /  3.3 °C 31.7 °F /  -0.2 °C 30.16in /  1021.2hPa NNW 4.6mph /  7.4km/h 4.6mph /  7.4km/h 78% 0.00in /  0mm WeatherDisplay:10.37 W/m2 OVC
06:39 37.8 °F /  3.2 °C 31.2 °F /  -0.4 °C 30.16in /  1021.2hPa NNE 4.6mph /  7.4km/h 4.6mph /  7.4km/h 77% 0.00in /  0mm WeatherDisplay:10.37 W/m2 OVC
06:49 37.7 °F /  3.2 °C 31.1 °F /  -0.5 °C 30.16in /  1021.2hPa NNW 2.3mph /  3.7km/h 2.3mph /  3.7km/h 77% 0.00in /  0mm WeatherDisplay:10.37 W/m2 OVC
06:54 37.7 °F /  3.2 °C 31.1 °F /  -0.5 °C 30.16in /  1021.2hPa NNW 3.5mph /  5.6km/h   77% 0.00in /  0mm WeatherDisplay:10.37 W/m2 OVC
06:59 37.8 °F /  3.2 °C 31.6 °F /  -0.2 °C 30.17in /  1021.6hPa NNW 4.6mph /  7.4km/h 4.6mph /  7.4km/h 78% 0.00in /  0mm WeatherDisplay:10.37 W/m2 OVC
07:04 37.8 °F /  3.2 °C 31.6 °F /  -0.2 °C 30.17in /  1021.6hPa WSW 4.6mph /  7.4km/h 4.6mph /  7.4km/h 78% 0.00in /  0mm WeatherDisplay:10.37 W/m2 BKN
07:09 37.8 °F /  3.2 °C 31.6 °F /  -0.2 °C 30.17in /  1021.6hPa West 3.5mph /  5.6km/h   78% 0.00in /  0mm WeatherDisplay:10.37 W/m2 BKN
07:14 37.8 °F /  3.2 °C 31.9 °F /  -0.1 °C 30.17in /  1021.6hPa West 3.5mph /  5.6km/h 3.5mph /  5.6km/h 79% 0.00in /  0mm WeatherDisplay:10.37 W/m2 BKN
07:19 37.8 °F /  3.2 °C 31.9 °F /  -0.1 °C 30.16in /  1021.2hPa West 2.3mph /  3.7km/h   79% 0.00in /  0mm WeatherDisplay:10.37 W/m2 BKN
07:21 37.8 °F /  3.2 °C 31.9 °F /  -0.1 °C 30.16in /  1021.2hPa West 2.3mph /  3.7km/h   79% 0.00in /  0mm WeatherDisplay:10.37 W/m2 BKN
07:26 37.8 °F /  3.2 °C 31.6 °F /  -0.2 °C 30.16in /  1021.2hPa NW 2.3mph /  3.7km/h 2.3mph /  3.7km/h 78% 0.00in /  0mm WeatherDisplay:10.37 W/m2 BKN
07:31 37.8 °F /  3.2 °C 31.6 °F /  -0.2 °C 30.16in /  1021.2hPa NW 2.3mph /  3.7km/h   78% 0.00in /  0mm WeatherDisplay:10.37 W/m2 BKN
07:36 37.8 °F /  3.2 °C 31.2 °F /  -0.4 °C 30.16in /  1021.2hPa ENE 2.3mph /  3.7km/h 2.3mph /  3.7km/h 77% 0.00in /  0mm WeatherDisplay:10.37 W/m2 BKN
07:42 37.8 °F /  3.2 °C 31.2 °F /  -0.4 °C 30.16in /  1021.2hPa NNE 3.5mph /  5.6km/h 3.5mph /  5.6km/h 77% 0.00in /  0mm WeatherDisplay:10.37 W/m2 BKN
07:47 37.8 °F /  3.2 °C 31.6 °F /  -0.2 °C 30.16in /  1021.2hPa NW 3.5mph /  5.6km/h 3.5mph /  5.6km/h 78% 0.00in /  0mm WeatherDisplay:10.37 W/m2 BKN
07:52 37.8 °F /  3.2 °C 31.9 °F /  -0.1 °C 30.16in /  1021.2hPa NW 2.3mph /  3.7km/h   79% 0.00in /  0mm WeatherDisplay:10.37 W/m2 BKN
07:57 37.8 °F /  3.2 °C 31.6 °F /  -0.2 °C 30.16in /  1021.2hPa WNW 2.3mph /  3.7km/h   78% 0.00in /  0mm WeatherDisplay:10.37 W/m2 BKN
08:02 37.8 °F /  3.2 °C 31.2 °F /  -0.4 °C 30.15in /  1020.9hPa WSW 2.3mph /  3.7km/h 2.3mph /  3.7km/h 77% 0.00in /  0mm WeatherDisplay:10.37 W/m2 OVC
08:07 37.9 °F /  3.3 °C 31.7 °F /  -0.2 °C 30.17in /  1021.6hPa West 2.3mph /  3.7km/h   78% 0.00in /  0mm WeatherDisplay:10.37 W/m2 OVC
08:12 37.9 °F /  3.3 °C 31.7 °F /  -0.2 °C 30.17in /  1021.6hPa NW 2.3mph /  3.7km/h   78% 0.00in /  0mm WeatherDisplay:10.37 W/m2 OVC
08:17 37.9 °F /  3.3 °C 31.0 °F /  -0.6 °C 30.16in /  1021.2hPa WNW 4.6mph /  7.4km/h   76% 0.00in /  0mm WeatherDisplay:10.37 W/m2 OVC
08:22 38.0 °F /  3.3 °C 31.4 °F /  -0.3 °C 30.16in /  1021.2hPa NW 4.6mph /  7.4km/h   77% 0.00in /  0mm WeatherDisplay:10.37 W/m2 OVC
08:27 38.1 °F /  3.4 °C 31.2 °F /  -0.4 °C 30.17in /  1021.6hPa NW 2.3mph /  3.7km/h 2.3mph /  3.7km/h 76% 0.00in /  0mm WeatherDisplay:10.37 W/m2 OVC
08:33 38.1 °F /  3.4 °C 31.2 °F /  -0.4 °C 30.18in /  1021.9hPa WNW 4.6mph /  7.4km/h   76% 0.00in /  0mm WeatherDisplay:10.37 W/m2 OVC
08:38 38.2 °F /  3.4 °C 31.6 °F /  -0.2 °C 30.18in /  1021.9hPa West 4.6mph /  7.4km/h 4.6mph /  7.4km/h 77% 0.00in /  0mm WeatherDisplay:10.37 W/m2 OVC
08:43 38.2 °F /  3.4 °C 31.0 °F /  -0.6 °C 30.18in /  1021.9hPa NNE 2.3mph /  3.7km/h 2.3mph /  3.7km/h 75% 0.00in /  0mm WeatherDisplay:10.37 W/m2 OVC
08:48 38.3 °F /  3.5 °C 31.1 °F /  -0.5 °C 30.18in /  1021.9hPa North 2.3mph /  3.7km/h   75% 0.00in /  0mm WeatherDisplay:10.37 W/m2 OVC
08:53 38.4 °F /  3.6 °C 31.2 °F /  -0.4 °C 30.18in /  1021.9hPa NNW 2.3mph /  3.7km/h   75% 0.00in /  0mm WeatherDisplay:10.37 W/m2 OVC
08:58 38.5 °F /  3.6 °C 31.3 °F /  -0.4 °C 30.18in /  1021.9hPa NW 1.2mph /  1.9km/h   75% 0.00in /  0mm WeatherDisplay:10.37 W/m2 OVC
09:03 38.7 °F /  3.7 °C 31.1 °F /  -0.5 °C 30.19in /  1022.2hPa WNW 1.2mph /  1.9km/h   74% 0.00in /  0mm WeatherDisplay:10.37 W/m2 OVC
09:08 38.7 °F /  3.7 °C 31.1 °F /  -0.5 °C 30.21in /  1022.9hPa NW 2.3mph /  3.7km/h 2.3mph /  3.7km/h 74% 0.00in /  0mm WeatherDisplay:10.37 W/m2 OVC
09:13 38.8 °F /  3.8 °C 31.2 °F /  -0.4 °C 30.21in /  1022.9hPa WNW 2.3mph /  3.7km/h 2.3mph /  3.7km/h 74% 0.00in /  0mm WeatherDisplay:10.37 W/m2 OVC
09:18 38.9 °F /  3.8 °C 31.3 °F /  -0.4 °C 30.20in /  1022.6hPa WNW 1.2mph /  1.9km/h 1.2mph /  1.9km/h 74% 0.00in /  0mm WeatherDisplay:10.37 W/m2 OVC
09:23 38.9 °F /  3.8 °C 29.6 °F /  -1.3 °C 30.21in /  1022.9hPa North 4.6mph /  7.4km/h 4.6mph /  7.4km/h 69% 0.00in /  0mm WeatherDisplay:10.37 W/m2 OVC
09:28 39.0 °F /  3.9 °C 29.7 °F /  -1.3 °C 30.22in /  1023.2hPa ENE 4.6mph /  7.4km/h 4.6mph /  7.4km/h 69% 0.00in /  0mm WeatherDisplay:10.37 W/m2 OVC
09:34 39.0 °F /  3.9 °C 29.7 °F /  -1.3 °C 30.22in /  1023.2hPa NNE 4.6mph /  7.4km/h 4.6mph /  7.4km/h 69% 0.00in /  0mm WeatherDisplay:10.37 W/m2 OVC
09:39 39.0 °F /  3.9 °C 28.6 °F /  -1.9 °C 30.22in /  1023.2hPa NW 3.5mph /  5.6km/h 3.5mph /  5.6km/h 66% 0.00in /  0mm WeatherDisplay:10.37 W/m2 OVC
09:44 38.9 °F /  3.8 °C 29.2 °F /  -1.6 °C 30.22in /  1023.2hPa West 3.5mph /  5.6km/h 3.5mph /  5.6km/h 68% 0.00in /  0mm WeatherDisplay:10.37 W/m2 OVC
09:49 38.9 °F /  3.8 °C 28.5 °F /  -1.9 °C 30.22in /  1023.2hPa WNW 3.5mph /  5.6km/h   66% 0.00in /  0mm WeatherDisplay:10.37 W/m2 OVC
09:54 38.9 °F /  3.8 °C 28.9 °F /  -1.7 °C 30.23in /  1023.6hPa North 3.5mph /  5.6km/h   67% 0.00in /  0mm WeatherDisplay:10.37 W/m2 OVC
09:59 38.9 °F /  3.8 °C 28.9 °F /  -1.7 °C 30.23in /  1023.6hPa West 3.5mph /  5.6km/h   67% 0.00in /  0mm WeatherDisplay:10.37 W/m2 OVC
10:04 38.9 °F /  3.8 °C 28.9 °F /  -1.7 °C 30.23in /  1023.6hPa West 3.5mph /  5.6km/h 3.5mph /  5.6km/h 67% 0.00in /  0mm WeatherDisplay:10.37 W/m2 OVC
10:09 38.9 °F /  3.8 °C 28.9 °F /  -1.7 °C 30.23in /  1023.6hPa West 2.3mph /  3.7km/h 2.3mph /  3.7km/h 67% 0.00in /  0mm WeatherDisplay:10.37 W/m2 OVC
10:14 38.9 °F /  3.8 °C 28.1 °F /  -2.2 °C 30.23in /  1023.6hPa SSW 2.3mph /  3.7km/h 2.3mph /  3.7km/h 65% 0.00in /  0mm WeatherDisplay:10.37 W/m2 OVC
10:19 38.8 °F /  3.8 °C 28.0 °F /  -2.2 °C 30.23in /  1023.6hPa SSE 4.6mph /  7.4km/h 4.6mph /  7.4km/h 65% 0.00in /  0mm WeatherDisplay:10.37 W/m2 OVC
10:24 38.8 °F /  3.8 °C 28.0 °F /  -2.2 °C 30.23in /  1023.6hPa South 4.6mph /  7.4km/h 4.6mph /  7.4km/h 65% 0.00in /  0mm WeatherDisplay:10.37 W/m2 OVC
10:29 38.8 °F /  3.8 °C 28.4 °F /  -2 °C 30.23in /  1023.6hPa West 3.5mph /  5.6km/h   66% 0.00in /  0mm WeatherDisplay:10.37 W/m2 OVC
10:34 38.9 °F /  3.8 °C 27.8 °F /  -2.3 °C 30.23in /  1023.6hPa NW 2.3mph /  3.7km/h 2.3mph /  3.7km/h 64% 0.00in /  0mm WeatherDisplay:10.37 W/m2 OVC
10:40 39.0 °F /  3.9 °C 28.2 °F /  -2.1 °C 30.23in /  1023.6hPa East 1.2mph /  1.9km/h   65% 0.00in /  0mm WeatherDisplay:10.37 W/m2 OVC
10:45 39.1 °F /  3.9 °C 28.7 °F /  -1.8 °C 30.23in /  1023.6hPa NNW 1.2mph /  1.9km/h   66% 0.00in /  0mm WeatherDisplay:10.37 W/m2 OVC
10:50 39.3 °F /  4.1 °C 28.9 °F /  -1.7 °C 30.23in /  1023.6hPa WNW 1.2mph /  1.9km/h   66% 0.00in /  0mm WeatherDisplay:10.37 W/m2 OVC
10:55 39.4 °F /  4.1 °C 28.2 °F /  -2.1 °C 30.23in /  1023.6hPa West 4.6mph /  7.4km/h 4.6mph /  7.4km/h 64% 0.00in /  0mm WeatherDisplay:10.37 W/m2 OVC
11:00 39.5 °F /  4.2 °C 27.9 °F /  -2.3 °C 30.23in /  1023.6hPa SE 4.6mph /  7.4km/h   63% 0.00in /  0mm WeatherDisplay:10.37 W/m2 OVC
11:05 39.6 °F /  4.2 °C 29.2 °F /  -1.6 °C 30.22in /  1023.2hPa SSW 2.3mph /  3.7km/h 2.3mph /  3.7km/h 66% 0.00in /  0mm WeatherDisplay:10.37 W/m2 OVC
11:10 39.6 °F /  4.2 °C 27.6 °F /  -2.4 °C 30.22in /  1023.2hPa NE 3.5mph /  5.6km/h   62% 0.00in /  0mm WeatherDisplay:10.37 W/m2 OVC
11:15 39.6 °F /  4.2 °C 28.4 °F /  -2 °C 30.22in /  1023.2hPa East 3.5mph /  5.6km/h   64% 0.00in /  0mm WeatherDisplay:10.37 W/m2 OVC
11:20 39.6 °F /  4.2 °C 28.4 °F /  -2 °C 30.22in /  1023.2hPa East 3.5mph /  5.6km/h   64% 0.00in /  0mm WeatherDisplay:10.37 W/m2 OVC
11:25 39.7 °F /  4.3 °C 28.5 °F /  -1.9 °C 30.22in /  1023.2hPa East 3.5mph /  5.6km/h 3.5mph /  5.6km/h 64% 0.00in /  0mm WeatherDisplay:10.37 W/m2 OVC
11:30 39.7 °F /  4.3 °C 27.7 °F /  -2.4 °C 30.22in /  1023.2hPa SE 3.5mph /  5.6km/h 3.5mph /  5.6km/h 62% 0.00in /  0mm WeatherDisplay:10.37 W/m2 OVC
11:35 39.7 °F /  4.3 °C 28.1 °F /  -2.2 °C 30.22in /  1023.2hPa SSW 3.5mph /  5.6km/h 3.5mph /  5.6km/h 63% 0.00in /  0mm WeatherDisplay:10.37 W/m2 OVC
11:40 39.8 °F /  4.3 °C 28.6 °F /  -1.9 °C 30.21in /  1022.9hPa SSW 3.5mph /  5.6km/h 3.5mph /  5.6km/h 64% 0.00in /  0mm WeatherDisplay:10.37 W/m2 OVC
11:46 39.7 °F /  4.3 °C 27.7 °F /  -2.4 °C 30.22in /  1023.2hPa SE 3.5mph /  5.6km/h   62% 0.00in /  0mm WeatherDisplay:10.37 W/m2 OVC
11:51 39.7 °F /  4.3 °C 28.5 °F /  -1.9 °C 30.21in /  1022.9hPa South 3.5mph /  5.6km/h   64% 0.00in /  0mm WeatherDisplay:10.37 W/m2 OVC
11:56 39.7 °F /  4.3 °C 28.1 °F /  -2.2 °C 30.22in /  1023.2hPa SW 3.5mph /  5.6km/h 3.5mph /  5.6km/h 63% 0.00in /  0mm WeatherDisplay:10.37 W/m2 OVC
12:01 39.7 °F /  4.3 °C 28.5 °F /  -1.9 °C 30.22in /  1023.2hPa NNW 2.3mph /  3.7km/h   64% 0.00in /  0mm WeatherDisplay:10.37 W/m2 -RA
12:04 39.7 °F /  4.3 °C 28.5 °F /  -1.9 °C 30.22in /  1023.2hPa North 2.3mph /  3.7km/h   64% 0.00in /  0mm WeatherDisplay:10.37 W/m2 -RA
12:09 39.6 °F /  4.2 °C 28.0 °F /  -2.2 °C 30.22in /  1023.2hPa NNE 3.5mph /  5.6km/h 3.5mph /  5.6km/h 63% 0.00in /  0mm WeatherDisplay:10.37 W/m2 -RA
12:14 39.6 °F /  4.2 °C 28.0 °F /  -2.2 °C 30.22in /  1023.2hPa NNE 3.5mph /  5.6km/h   63% 0.00in /  0mm WeatherDisplay:10.37 W/m2 -RA
12:19 39.6 °F /  4.2 °C 28.4 °F /  -2 °C 30.23in /  1023.6hPa NNW 3.5mph /  5.6km/h   64% 0.00in /  0mm WeatherDisplay:10.37 W/m2 -RA
12:24 39.5 °F /  4.2 °C 29.8 °F /  -1.2 °C 30.22in /  1023.2hPa WNW 1.2mph /  1.9km/h   68% 0.00in /  0mm WeatherDisplay:10.37 W/m2 -RA
12:29 39.4 °F /  4.1 °C 29.3 °F /  -1.5 °C 30.22in /  1023.2hPa WSW 3.5mph /  5.6km/h 3.5mph /  5.6km/h 67% 0.00in /  0mm WeatherDisplay:10.37 W/m2 -RA
12:34 39.2 °F /  4 °C 29.5 °F /  -1.4 °C 30.22in /  1023.2hPa South 3.5mph /  5.6km/h   68% 0.00in /  0mm WeatherDisplay:10.37 W/m2 -RA
12:39 39.1 °F /  3.9 °C 29.4 °F /  -1.4 °C 30.22in /  1023.2hPa North 3.5mph /  5.6km/h   68% 0.00in /  0mm WeatherDisplay:10.37 W/m2 -RA
12:45 38.9 °F /  3.8 °C 30.3 °F /  -0.9 °C 30.22in /  1023.2hPa WNW 2.3mph /  3.7km/h   71% 0.00in /  0mm WeatherDisplay:10.37 W/m2 -RA
12:46 38.8 °F /  3.8 °C 30.5 °F /  -0.8 °C 30.22in /  1023.2hPa West 1.2mph /  1.9km/h   72% 0.00in /  0mm WeatherDisplay:10.37 W/m2 -RA
12:51 38.7 °F /  3.7 °C 30.8 °F /  -0.7 °C 30.22in /  1023.2hPa Calm     73% 0.00in /  0mm WeatherDisplay:10.37 W/m2 -RA
12:56 38.6 °F /  3.7 °C 31.0 °F /  -0.6 °C 30.21in /  1022.9hPa West 1.2mph /  1.9km/h   74% 0.00in /  0mm WeatherDisplay:10.37 W/m2 -RA
13:01 38.4 °F /  3.6 °C 30.5 °F /  -0.8 °C 30.21in /  1022.9hPa WSW 1.2mph /  1.9km/h   73% 0.00in /  0mm WeatherDisplay:10.37 W/m2 -RA
13:06 38.4 °F /  3.6 °C 30.8 °F /  -0.7 °C 30.21in /  1022.9hPa SE 1.2mph /  1.9km/h   74% 0.00in /  0mm WeatherDisplay:10.37 W/m2 -RA
13:12 38.2 °F /  3.4 °C 30.3 °F /  -0.9 °C 30.21in /  1022.9hPa SE 3.5mph /  5.6km/h   73% 0.00in /  0mm WeatherDisplay:10.37 W/m2 -RA
13:17 38.1 °F /  3.4 °C 30.9 °F /  -0.6 °C 30.20in /  1022.6hPa SE 3.5mph /  5.6km/h   75% 0.00in /  0mm WeatherDisplay:10.37 W/m2 -RA
13:22 38.0 °F /  3.3 °C 31.1 °F /  -0.5 °C 30.21in /  1022.9hPa West 1.2mph /  1.9km/h   76% 0.00in /  0mm WeatherDisplay:10.37 W/m2 -RA
13:27 37.7 °F /  3.2 °C 31.1 °F /  -0.5 °C 30.20in /  1022.6hPa WNW 2.3mph /  3.7km/h   77% 0.00in /  0mm WeatherDisplay:10.37 W/m2 -RA
13:32 37.6 °F /  3.1 °C 31.7 °F /  -0.2 °C 30.20in /  1022.6hPa East 2.3mph /  3.7km/h   79% 0.00in /  0mm WeatherDisplay:10.37 W/m2 -RA
13:37 37.4 °F /  3 °C 31.5 °F /  -0.3 °C 30.20in /  1022.6hPa NE 1.2mph /  1.9km/h   79% 0.01in /  0.25mm WeatherDisplay:10.37 W/m2 -RA
13:42 37.3 °F /  2.9 °C 32.0 °F /  0 °C 30.20in /  1022.6hPa NNE 1.2mph /  1.9km/h   81% 0.01in /  0.25mm WeatherDisplay:10.37 W/m2 -RA
13:47 37.1 °F /  2.8 °C 31.8 °F /  -0.1 °C 30.19in /  1022.2hPa North 1.2mph /  1.9km/h   81% 0.01in /  0.25mm WeatherDisplay:10.37 W/m2 -RA
13:52 37.0 °F /  2.8 °C 32.3 °F /  0.2 °C 30.19in /  1022.2hPa Calm     83% 0.01in /  0.25mm WeatherDisplay:10.37 W/m2 -RA
13:57 36.9 °F /  2.7 °C 32.5 °F /  0.3 °C 30.19in /  1022.2hPa Calm     84% 0.01in /  0.25mm WeatherDisplay:10.37 W/m2 -RA
14:02 36.8 °F /  2.7 °C 32.4 °F /  0.2 °C 30.19in /  1022.2hPa Calm     84% 0.01in /  0.25mm WeatherDisplay:10.37 W/m2 -RA
14:07 36.8 °F /  2.7 °C 32.4 °F /  0.2 °C 30.18in /  1021.9hPa Calm     84% 0.02in /  0.51mm WeatherDisplay:10.37 W/m2 -RA
14:12 36.9 °F /  2.7 °C 32.8 °F /  0.4 °C 30.18in /  1021.9hPa Calm     85% 0.02in /  0.51mm WeatherDisplay:10.37 W/m2 -RA
14:17 37.0 °F /  2.8 °C 32.9 °F /  0.5 °C 30.18in /  1021.9hPa Calm     85% 0.02in /  0.51mm WeatherDisplay:10.37 W/m2 -RA
14:23 37.1 °F /  2.8 °C 32.7 °F /  0.4 °C 30.18in /  1021.9hPa Calm     84% 0.02in /  0.51mm WeatherDisplay:10.37 W/m2 -RA
14:28 37.3 °F /  2.9 °C 32.3 °F /  0.2 °C 30.17in /  1021.6hPa WNW 1.2mph /  1.9km/h   82% 0.02in /  0.51mm WeatherDisplay:10.37 W/m2 -RA
14:33 37.5 °F /  3.1 °C 33.1 °F /  0.6 °C 30.17in /  1021.6hPa West 1.2mph /  1.9km/h   84% 0.02in /  0.51mm WeatherDisplay:10.37 W/m2 -RA
14:38 37.8 °F /  3.2 °C 33.4 °F /  0.8 °C 30.17in /  1021.6hPa Calm     84% 0.01in /  0.25mm WeatherDisplay:10.37 W/m2 -RA
14:43 37.9 °F /  3.3 °C 33.2 °F /  0.7 °C 30.16in /  1021.2hPa Calm     83% 0.01in /  0.25mm WeatherDisplay:10.37 W/m2 -RA
14:48 38.1 °F /  3.4 °C 32.5 °F /  0.3 °C 30.16in /  1021.2hPa WNW 1.2mph /  1.9km/h 1.2mph /  1.9km/h 80% 0.01in /  0.25mm WeatherDisplay:10.37 W/m2 OVC
14:53 38.3 °F /  3.5 °C 31.4 °F /  -0.3 °C 30.16in /  1021.2hPa East 1.2mph /  1.9km/h   76% 0.01in /  0.25mm WeatherDisplay:10.37 W/m2 OVC
14:58 38.5 °F /  3.6 °C 32.6 °F /  0.3 °C 30.16in /  1021.2hPa East 1.2mph /  1.9km/h   79% 0.01in /  0.25mm WeatherDisplay:10.37 W/m2 OVC
15:03 38.6 °F /  3.7 °C 32.6 °F /  0.3 °C 30.15in /  1020.9hPa NE 1.2mph /  1.9km/h 1.2mph /  1.9km/h 79% 0.01in /  0.25mm WeatherDisplay:10.37 W/m2 OVC
15:08 38.7 °F /  3.7 °C 32.1 °F /  0.1 °C 30.15in /  1020.9hPa WNW 1.2mph /  1.9km/h   77% 0.00in /  0mm WeatherDisplay:10.37 W/m2 OVC
15:18 38.9 °F /  3.8 °C 31.0 °F /  -0.6 °C 30.14in /  1020.5hPa Calm     73% 0.00in /  0mm WeatherDisplay:10.37 W/m2 OVC
15:23 39.0 °F /  3.9 °C 31.7 °F /  -0.2 °C 30.14in /  1020.5hPa Calm     75% 0.00in /  0mm WeatherDisplay:10.37 W/m2 OVC
15:34 39.2 °F /  4 °C 30.6 °F /  -0.8 °C 30.14in /  1020.5hPa East 1.2mph /  1.9km/h   71% 0.00in /  0mm WeatherDisplay:10.37 W/m2 OVC
15:39 39.3 °F /  4.1 °C 31.4 °F /  -0.3 °C 30.14in /  1020.5hPa SE 1.2mph /  1.9km/h   73% 0.00in /  0mm WeatherDisplay:10.37 W/m2 OVC
15:44 39.4 °F /  4.1 °C 31.5 °F /  -0.3 °C 30.14in /  1020.5hPa WSW 1.2mph /  1.9km/h   73% 0.00in /  0mm WeatherDisplay:10.37 W/m2 OVC
15:49 39.5 °F /  4.2 °C 31.9 °F /  -0.1 °C 30.15in /  1020.9hPa West 1.2mph /  1.9km/h   74% 0.00in /  0mm WeatherDisplay:10.37 W/m2 OVC
15:54 39.5 °F /  4.2 °C 31.2 °F /  -0.4 °C 30.14in /  1020.5hPa Calm     72% 0.00in /  0mm WeatherDisplay:10.37 W/m2 OVC
15:59 39.5 °F /  4.2 °C 31.6 °F /  -0.2 °C 30.15in /  1020.9hPa West 1.2mph /  1.9km/h   73% 0.00in /  0mm WeatherDisplay:10.37 W/m2 OVC
16:04 39.6 °F /  4.2 °C 31.3 °F /  -0.4 °C 30.15in /  1020.9hPa West 1.2mph /  1.9km/h   72% 0.00in /  0mm WeatherDisplay:10.37 W/m2 OVC
16:09 39.8 °F /  4.3 °C 30.8 °F /  -0.7 °C 30.16in /  1021.2hPa SW 1.2mph /  1.9km/h   70% 0.00in /  0mm WeatherDisplay:10.37 W/m2 OVC
16:14 39.8 °F /  4.3 °C 30.5 °F /  -0.8 °C 30.16in /  1021.2hPa WNW 1.2mph /  1.9km/h   69% 0.00in /  0mm WeatherDisplay:10.37 W/m2 -RA
16:19 39.9 °F /  4.4 °C 30.2 °F /  -1 °C 30.16in /  1021.2hPa WNW 2.3mph /  3.7km/h   68% 0.00in /  0mm WeatherDisplay:10.37 W/m2 -RA
16:24 40.0 °F /  4.4 °C 30.6 °F /  -0.8 °C 30.16in /  1021.2hPa WSW 2.3mph /  3.7km/h   69% 0.00in /  0mm WeatherDisplay:10.37 W/m2 -RA
16:30 40.0 °F /  4.4 °C 30.3 °F /  -0.9 °C 30.17in /  1021.6hPa SSW 1.2mph /  1.9km/h   68% 0.00in /  0mm WeatherDisplay:10.37 W/m2 -RA
16:35 40.0 °F /  4.4 °C 31.4 °F /  -0.3 °C 30.17in /  1021.6hPa Calm     71% 0.00in /  0mm WeatherDisplay:10.37 W/m2 -RA
16:40 40.0 °F /  4.4 °C 30.6 °F /  -0.8 °C 30.17in /  1021.6hPa Calm   1.0mph /  1.6km/h 69% 0.00in /  0mm WeatherDisplay:10.37 W/m2 OVC
16:42 40.0 °F /  4.4 °C 30.6 °F /  -0.8 °C 30.17in /  1021.6hPa West 1.2mph /  1.9km/h   69% 0.00in /  0mm WeatherDisplay:10.37 W/m2 OVC
16:47 40.0 °F /  4.4 °C 29.9 °F /  -1.2 °C 30.17in /  1021.6hPa West 1.2mph /  1.9km/h 1.2mph /  1.9km/h 67% 0.00in /  0mm WeatherDisplay:10.37 W/m2 OVC
16:52 40.0 °F /  4.4 °C 30.3 °F /  -0.9 °C 30.17in /  1021.6hPa West 1.2mph /  1.9km/h 1.2mph /  1.9km/h 68% 0.00in /  0mm WeatherDisplay:10.37 W/m2 OVC
16:57 39.9 °F /  4.4 °C 29.8 °F /  -1.2 °C 30.17in /  1021.6hPa WSW 2.3mph /  3.7km/h   67% 0.00in /  0mm WeatherDisplay:10.37 W/m2 OVC
17:02 39.9 °F /  4.4 °C 28.7 °F /  -1.8 °C 30.17in /  1021.6hPa SW 2.3mph /  3.7km/h   64% 0.00in /  0mm WeatherDisplay:10.37 W/m2 OVC
17:07 39.9 °F /  4.4 °C 29.1 °F /  -1.6 °C 30.17in /  1021.6hPa WSW 1.2mph /  1.9km/h   65% 0.00in /  0mm WeatherDisplay:10.37 W/m2 OVC
17:12 39.8 °F /  4.3 °C 28.6 °F /  -1.9 °C 30.16in /  1021.2hPa SW 1.2mph /  1.9km/h   64% 0.00in /  0mm WeatherDisplay:10.37 W/m2 OVC
17:17 39.8 °F /  4.3 °C 29.7 °F /  -1.3 °C 30.16in /  1021.2hPa SSE 1.2mph /  1.9km/h   67% 0.00in /  0mm WeatherDisplay:10.37 W/m2 OVC
17:22 39.7 °F /  4.3 °C 28.9 °F /  -1.7 °C 30.17in /  1021.6hPa Calm     65% 0.00in /  0mm WeatherDisplay:10.37 W/m2 OVC
17:27 39.6 °F /  4.2 °C 29.2 °F /  -1.6 °C 30.17in /  1021.6hPa South 1.2mph /  1.9km/h   66% 0.00in /  0mm WeatherDisplay:10.37 W/m2 OVC
17:32 39.6 °F /  4.2 °C 29.9 °F /  -1.2 °C 30.17in /  1021.6hPa WSW 1.2mph /  1.9km/h   68% 0.00in /  0mm WeatherDisplay:10.37 W/m2 OVC
17:38 39.5 °F /  4.2 °C 29.4 °F /  -1.4 °C 30.17in /  1021.6hPa West 1.2mph /  1.9km/h   67% 0.00in /  0mm WeatherDisplay:10.37 W/m2 OVC
17:43 39.5 °F /  4.2 °C 29.4 °F /  -1.4 °C 30.17in /  1021.6hPa West 1.2mph /  1.9km/h   67% 0.00in /  0mm WeatherDisplay:10.37 W/m2 OVC
17:48 39.4 °F /  4.1 °C 29.3 °F /  -1.5 °C 30.17in /  1021.6hPa West 1.2mph /  1.9km/h   67% 0.00in /  0mm WeatherDisplay:10.37 W/m2 OVC
17:53 39.5 °F /  4.2 °C 30.2 °F /  -1 °C 30.18in /  1021.9hPa West 1.2mph /  1.9km/h   69% 0.00in /  0mm WeatherDisplay:10.37 W/m2 OVC
17:58 39.4 °F /  4.1 °C 30.1 °F /  -1.1 °C 30.19in /  1022.2hPa WNW 1.2mph /  1.9km/h   69% 0.00in /  0mm WeatherDisplay:10.37 W/m2 OVC
18:03 39.4 °F /  4.1 °C 29.3 °F /  -1.5 °C 30.19in /  1022.2hPa Calm     67% 0.00in /  0mm WeatherDisplay:10.37 W/m2 OVC
18:08 39.4 °F /  4.1 °C 29.3 °F /  -1.5 °C 30.19in /  1022.2hPa Calm     67% 0.00in /  0mm WeatherDisplay:10.37 W/m2 OVC
18:13 39.5 °F /  4.2 °C 28.3 °F /  -2.1 °C 30.19in /  1022.2hPa WNW 2.3mph /  3.7km/h   64% 0.00in /  0mm WeatherDisplay:10.37 W/m2 OVC
18:18 39.7 °F /  4.3 °C 29.3 °F /  -1.5 °C 30.17in /  1021.6hPa West 2.3mph /  3.7km/h   66% 0.00in /  0mm WeatherDisplay:10.37 W/m2 OVC
18:23 39.6 °F /  4.2 °C 29.2 °F /  -1.6 °C 30.17in /  1021.6hPa West 1.2mph /  1.9km/h   66% 0.00in /  0mm WeatherDisplay:10.37 W/m2 OVC
18:28 39.6 °F /  4.2 °C 28.4 °F /  -2 °C 30.19in /  1022.2hPa West 1.2mph /  1.9km/h   64% 0.00in /  0mm WeatherDisplay:10.37 W/m2 OVC
18:33 39.7 °F /  4.3 °C 28.9 °F /  -1.7 °C 30.20in /  1022.6hPa WNW 1.2mph /  1.9km/h   65% 0.00in /  0mm WeatherDisplay:10.37 W/m2 OVC
18:38 39.8 °F /  4.3 °C 29.4 °F /  -1.4 °C 30.19in /  1022.2hPa WNW 1.2mph /  1.9km/h   66% 0.00in /  0mm WeatherDisplay:10.37 W/m2 OVC
18:43 39.8 °F /  4.3 °C 27.8 °F /  -2.3 °C 30.20in /  1022.6hPa WNW 2.3mph /  3.7km/h 2.3mph /  3.7km/h 62% 0.00in /  0mm WeatherDisplay:10.37 W/m2 OVC
18:48 39.9 °F /  4.4 °C 28.7 °F /  -1.8 °C 30.20in /  1022.6hPa SSE 2.3mph /  3.7km/h   64% 0.00in /  0mm WeatherDisplay:10.37 W/m2 OVC
18:54 39.9 °F /  4.4 °C 29.1 °F /  -1.6 °C 30.19in /  1022.2hPa SSW 2.3mph /  3.7km/h   65% 0.00in /  0mm WeatherDisplay:10.37 W/m2 OVC
18:59 39.9 °F /  4.4 °C 28.3 °F /  -2.1 °C 30.19in /  1022.2hPa West 1.2mph /  1.9km/h   63% 0.00in /  0mm WeatherDisplay:10.37 W/m2 OVC
19:04 39.9 °F /  4.4 °C 28.3 °F /  -2.1 °C 30.20in /  1022.6hPa West 2.3mph /  3.7km/h   63% 0.00in /  0mm WeatherDisplay:10.37 W/m2 OVC
19:09 39.9 °F /  4.4 °C 28.7 °F /  -1.8 °C 30.21in /  1022.9hPa West 2.3mph /  3.7km/h   64% 0.00in /  0mm WeatherDisplay:10.37 W/m2 OVC
19:14 39.9 °F /  4.4 °C 27.5 °F /  -2.5 °C 30.21in /  1022.9hPa West 1.2mph /  1.9km/h   61% 0.00in /  0mm WeatherDisplay:10.37 W/m2 OVC
19:19 40.0 °F /  4.4 °C 28.8 °F /  -1.8 °C 30.21in /  1022.9hPa West 1.2mph /  1.9km/h   64% 0.00in /  0mm WeatherDisplay:10.37 W/m2 OVC
19:24 40.1 °F /  4.5 °C 28.9 °F /  -1.7 °C 30.22in /  1023.2hPa West 1.2mph /  1.9km/h   64% 0.00in /  0mm WeatherDisplay:10.37 W/m2 OVC
19:29 40.1 °F /  4.5 °C 28.5 °F /  -1.9 °C 30.22in /  1023.2hPa WSW 1.2mph /  1.9km/h   63% 0.00in /  0mm WeatherDisplay:10.37 W/m2 OVC
19:34 40.1 °F /  4.5 °C 28.9 °F /  -1.7 °C 30.22in /  1023.2hPa SE 1.2mph /  1.9km/h   64% 0.00in /  0mm WeatherDisplay:10.37 W/m2 OVC
19:39 40.1 °F /  4.5 °C 28.5 °F /  -1.9 °C 30.21in /  1022.9hPa East 1.2mph /  1.9km/h   63% 0.00in /  0mm WeatherDisplay:10.37 W/m2 OVC
19:44 40.1 °F /  4.5 °C 27.3 °F /  -2.6 °C 30.22in /  1023.2hPa East 1.2mph /  1.9km/h   60% 0.00in /  0mm WeatherDisplay:10.37 W/m2 OVC
19:49 40.2 °F /  4.6 °C 28.6 °F /  -1.9 °C 30.23in /  1023.6hPa East 1.2mph /  1.9km/h 1.2mph /  1.9km/h 63% 0.00in /  0mm WeatherDisplay:10.37 W/m2 OVC
19:54 40.1 °F /  4.5 °C 28.5 °F /  -1.9 °C 30.22in /  1023.2hPa East 1.2mph /  1.9km/h 1.2mph /  1.9km/h 63% 0.00in /  0mm WeatherDisplay:10.37 W/m2 OVC
20:00 40.2 °F /  4.6 °C 27.8 °F /  -2.3 °C 30.22in /  1023.2hPa East 2.3mph /  3.7km/h   61% 0.00in /  0mm WeatherDisplay:10.37 W/m2 OVC
20:05 40.2 °F /  4.6 °C 27.8 °F /  -2.3 °C 30.23in /  1023.6hPa East 2.3mph /  3.7km/h   61% 0.00in /  0mm WeatherDisplay:10.37 W/m2 OVC
20:10 40.1 °F /  4.5 °C 29.3 °F /  -1.5 °C 30.23in /  1023.6hPa East 1.2mph /  1.9km/h   65% 0.00in /  0mm WeatherDisplay:10.37 W/m2 OVC
20:15 40.1 °F /  4.5 °C 28.5 °F /  -1.9 °C 30.23in /  1023.6hPa East 1.2mph /  1.9km/h   63% 0.00in /  0mm WeatherDisplay:10.37 W/m2 OVC
20:20 40.0 °F /  4.4 °C 27.6 °F /  -2.4 °C 30.24in /  1023.9hPa East 1.2mph /  1.9km/h 1.2mph /  1.9km/h 61% 0.00in /  0mm WeatherDisplay:10.37 W/m2 OVC
20:25 40.1 °F /  4.5 °C 28.5 °F /  -1.9 °C 30.24in /  1023.9hPa East 1.2mph /  1.9km/h   63% 0.00in /  0mm WeatherDisplay:10.37 W/m2 OVC
20:30 40.1 °F /  4.5 °C 27.3 °F /  -2.6 °C 30.24in /  1023.9hPa ESE 1.2mph /  1.9km/h   60% 0.00in /  0mm WeatherDisplay:10.37 W/m2 OVC
20:35 40.2 °F /  4.6 °C 28.6 °F /  -1.9 °C 30.24in /  1023.9hPa WSW 1.2mph /  1.9km/h   63% 0.00in /  0mm WeatherDisplay:10.37 W/m2 OVC
20:40 40.2 °F /  4.6 °C 28.6 °F /  -1.9 °C 30.24in /  1023.9hPa West 1.2mph /  1.9km/h 1.2mph /  1.9km/h 63% 0.00in /  0mm WeatherDisplay:10.37 W/m2 OVC
20:45 40.2 °F /  4.6 °C 27.8 °F /  -2.3 °C 30.24in /  1023.9hPa West 1.2mph /  1.9km/h   61% 0.00in /  0mm WeatherDisplay:10.37 W/m2 OVC
20:50 40.2 °F /  4.6 °C 27.4 °F /  -2.6 °C 30.23in /  1023.6hPa West 1.2mph /  1.9km/h 1.2mph /  1.9km/h 60% 0.00in /  0mm WeatherDisplay:10.37 W/m2 OVC
20:56 40.4 °F /  4.7 °C 27.2 °F /  -2.7 °C 30.23in /  1023.6hPa WSW 1.2mph /  1.9km/h 1.2mph /  1.9km/h 59% 0.00in /  0mm WeatherDisplay:10.37 W/m2 OVC
21:01 40.5 °F /  4.7 °C 26.9 °F /  -2.8 °C 30.24in /  1023.9hPa SSW 1.2mph /  1.9km/h   58% 0.00in /  0mm WeatherDisplay:10.37 W/m2 OVC
21:06 40.5 °F /  4.7 °C 28.5 °F /  -1.9 °C 30.24in /  1023.9hPa SW 1.2mph /  1.9km/h   62% 0.00in /  0mm WeatherDisplay:10.37 W/m2 OVC
21:11 40.4 °F /  4.7 °C 28.4 °F /  -2 °C 30.23in /  1023.6hPa Calm     62% 0.00in /  0mm WeatherDisplay:10.37 W/m2 OVC
21:16 40.3 °F /  4.6 °C 28.7 °F /  -1.8 °C 30.23in /  1023.6hPa WSW 1.2mph /  1.9km/h   63% 0.00in /  0mm WeatherDisplay:10.37 W/m2 OVC
21:21 40.4 °F /  4.7 °C 27.2 °F /  -2.7 °C 30.22in /  1023.2hPa SSE 1.2mph /  1.9km/h   59% 0.00in /  0mm WeatherDisplay:10.37 W/m2 OVC
21:26 40.4 °F /  4.7 °C 28.4 °F /  -2 °C 30.23in /  1023.6hPa ESE 1.2mph /  1.9km/h   62% 0.00in /  0mm WeatherDisplay:10.37 W/m2 OVC
21:31 40.3 °F /  4.6 °C 28.3 °F /  -2.1 °C 30.23in /  1023.6hPa Calm     62% 0.00in /  0mm WeatherDisplay:10.37 W/m2 OVC
21:36 40.3 °F /  4.6 °C 28.3 °F /  -2.1 °C 30.24in /  1023.9hPa Calm     62% 0.00in /  0mm WeatherDisplay:10.37 W/m2 OVC
21:41 40.2 °F /  4.6 °C 29.0 °F /  -1.7 °C 30.24in /  1023.9hPa Calm     64% 0.00in /  0mm WeatherDisplay:10.37 W/m2 OVC
21:46 40.2 °F /  4.6 °C 29.4 °F /  -1.4 °C 30.23in /  1023.6hPa Calm     65% 0.00in /  0mm WeatherDisplay:10.37 W/m2 OVC
21:51 40.2 °F /  4.6 °C 29.4 °F /  -1.4 °C 30.23in /  1023.6hPa Calm     65% 0.00in /  0mm WeatherDisplay:10.37 W/m2 OVC
21:56 40.1 °F /  4.5 °C 29.3 °F /  -1.5 °C 30.24in /  1023.9hPa Calm     65% 0.00in /  0mm WeatherDisplay:10.37 W/m2 OVC
22:02 40.1 °F /  4.5 °C 29.6 °F /  -1.3 °C 30.24in /  1023.9hPa Calm     66% 0.00in /  0mm WeatherDisplay:10.37 W/m2 OVC
22:07 40.1 °F /  4.5 °C 29.6 °F /  -1.3 °C 30.23in /  1023.6hPa Calm     66% 0.00in /  0mm WeatherDisplay:10.37 W/m2 OVC
22:14 40.0 °F /  4.4 °C 30.3 °F /  -0.9 °C 30.23in /  1023.6hPa Calm     68% 0.00in /  0mm WeatherDisplay:10.37 W/m2 OVC
22:19 39.9 °F /  4.4 °C 30.2 °F /  -1 °C 30.23in /  1023.6hPa Calm     68% 0.00in /  0mm WeatherDisplay:10.37 W/m2 OVC
22:24 39.9 °F /  4.4 °C 30.5 °F /  -0.8 °C 30.23in /  1023.6hPa Calm     69% 0.00in /  0mm WeatherDisplay:10.37 W/m2 OVC
22:25 39.9 °F /  4.4 °C 30.5 °F /  -0.8 °C 30.23in /  1023.6hPa Calm     69% 0.00in /  0mm WeatherDisplay:10.37 W/m2 OVC
22:27 39.9 °F /  4.4 °C 30.2 °F /  -1 °C 30.23in /  1023.6hPa Calm     68% 0.00in /  0mm WeatherDisplay:10.37 W/m2 OVC
22:32 39.9 °F /  4.4 °C 30.2 °F /  -1 °C 30.23in /  1023.6hPa Calm     68% 0.00in /  0mm WeatherDisplay:10.37 W/m2 OVC
22:37 39.8 °F /  4.3 °C 29.4 °F /  -1.4 °C 30.23in /  1023.6hPa Calm     66% 0.00in /  0mm WeatherDisplay:10.37 W/m2 OVC
22:42 39.9 °F /  4.4 °C 30.2 °F /  -1 °C 30.23in /  1023.6hPa Calm     68% 0.00in /  0mm WeatherDisplay:10.37 W/m2 OVC
22:47 39.8 °F /  4.3 °C 29.7 °F /  -1.3 °C 30.24in /  1023.9hPa Calm     67% 0.00in /  0mm WeatherDisplay:10.37 W/m2 OVC
22:52 39.8 °F /  4.3 °C 30.1 °F /  -1.1 °C 30.24in /  1023.9hPa Calm     68% 0.00in /  0mm WeatherDisplay:10.37 W/m2 OVC
22:57 39.7 °F /  4.3 °C 30.7 °F /  -0.7 °C 30.24in /  1023.9hPa Calm     70% 0.00in /  0mm WeatherDisplay:10.37 W/m2 OVC
23:02 39.7 °F /  4.3 °C 30.4 °F /  -0.9 °C 30.24in /  1023.9hPa Calm     69% 0.00in /  0mm WeatherDisplay:10.37 W/m2 OVC
23:07 39.7 °F /  4.3 °C 30.7 °F /  -0.7 °C 30.24in /  1023.9hPa Calm     70% 0.00in /  0mm WeatherDisplay:10.37 W/m2 OVC
23:12 39.7 °F /  4.3 °C 31.1 °F /  -0.5 °C 30.25in /  1024.3hPa Calm     71% 0.00in /  0mm WeatherDisplay:10.37 W/m2 OVC
23:17 39.7 °F /  4.3 °C 31.1 °F /  -0.5 °C 30.24in /  1023.9hPa Calm     71% 0.00in /  0mm WeatherDisplay:10.37 W/m2 OVC
23:23 39.7 °F /  4.3 °C 30.7 °F /  -0.7 °C 30.24in /  1023.9hPa Calm     70% 0.00in /  0mm WeatherDisplay:10.37 W/m2 OVC
23:28 39.7 °F /  4.3 °C 31.1 °F /  -0.5 °C 30.24in /  1023.9hPa Calm     71% 0.00in /  0mm WeatherDisplay:10.37 W/m2 OVC
23:33 39.7 °F /  4.3 °C 30.7 °F /  -0.7 °C 30.23in /  1023.6hPa Calm     70% 0.00in /  0mm WeatherDisplay:10.37 W/m2 OVC
23:38 39.7 °F /  4.3 °C 31.4 °F /  -0.3 °C 30.24in /  1023.9hPa Calm     72% 0.00in /  0mm WeatherDisplay:10.37 W/m2 OVC
23:43 39.6 °F /  4.2 °C 31.3 °F /  -0.4 °C 30.23in /  1023.6hPa Calm     72% 0.00in /  0mm WeatherDisplay:10.37 W/m2 OVC
23:48 39.6 °F /  4.2 °C 31.3 °F /  -0.4 °C 30.23in /  1023.6hPa Calm     72% 0.00in /  0mm WeatherDisplay:10.37 W/m2 OVC
23:53 39.5 °F /  4.2 °C 31.2 °F /  -0.4 °C 30.23in /  1023.6hPa Calm     72% 0.00in /  0mm WeatherDisplay:10.37 W/m2 OVC
23:58 39.5 °F /  4.2 °C 30.9 °F /  -0.6 °C 30.22in /  1023.2hPa Calm     71% 0.00in /  0mm WeatherDisplay:10.37 W/m2 OVC
Piedmont Bend
Compliments of Weather Underground - 4 mb